West, Illinois
Current Conditions -  °F | °C
As of 9:56 PM on Saturday 25 Oct 2014 (Local Time) from KBMI Reporting Station
Clear Clear  
Wind Chill: 59°   Ceiling: Unl
Heat Index: 59°   Visibility: 10mi
Dew Point: 38°   Wind: 9mph
Humidity: 46%   Direction: 310°NW
Pressure: 30.03"   Gusts: NA
Location:  40.382°N, 88.6331°W
Report Text: KBMI 260256Z 31008KT 10SM CLR 15/03 A3003 RMK AO2 53009 T01500033 SLP166
Loading
Personal Weather Stations






























Interactive Weather Map
Tropical Storm Tracking
New forecast layout! Learn more

10-Day Weather Forecast

Advertisements
Track Severe Weather on mobile